createdAt,value
2017-06-16T11:10:17.296Z,35
2017-06-16T11:11:25.383Z,34
2017-06-16T11:12:33.471Z,36
2017-06-16T11:13:41.554Z,34
2017-06-16T11:14:49.641Z,34
2017-06-16T11:15:57.729Z,35
2017-06-16T11:17:05.910Z,34
2017-06-16T11:18:13.905Z,34
2017-06-16T11:19:21.994Z,35
2017-06-16T11:20:30.080Z,36
2017-06-16T11:21:38.170Z,35
2017-06-16T11:22:46.253Z,32
2017-06-16T11:23:54.344Z,33
2017-06-16T11:25:02.431Z,34
2017-06-16T11:26:10.516Z,34
2017-06-16T11:27:18.606Z,33
2017-06-16T11:28:26.693Z,35
2017-06-16T11:29:34.781Z,35
2017-06-16T11:30:42.875Z,35
2017-06-16T11:31:50.958Z,35
2017-06-16T11:32:59.052Z,37
2017-06-16T11:34:07.189Z,37
2017-06-16T11:35:15.227Z,38
2017-06-16T11:36:23.316Z,36
2017-06-16T11:37:31.405Z,35
2017-06-16T11:38:39.493Z,36
2017-06-16T11:39:47.584Z,37
2017-06-16T11:40:55.668Z,35
2017-06-16T11:42:03.764Z,34
2017-06-16T11:43:11.856Z,34
2017-06-16T11:44:19.942Z,35
2017-06-16T11:45:28.030Z,35
2017-06-16T11:46:36.121Z,36
2017-06-16T11:47:44.205Z,36
2017-06-16T11:48:52.290Z,36
2017-06-16T11:50:00.380Z,36
2017-06-16T11:51:08.475Z,35
2017-06-16T11:52:16.554Z,35
2017-06-16T11:53:24.646Z,36
2017-06-16T11:54:32.735Z,36
2017-06-16T11:55:40.875Z,37
2017-06-16T11:56:48.907Z,37
2017-06-16T11:57:56.996Z,36
2017-06-16T11:59:05.085Z,37
2017-06-16T12:00:13.170Z,35
2017-06-16T12:01:21.267Z,36
2017-06-16T12:02:29.353Z,36
2017-06-16T12:03:37.442Z,35
2017-06-16T12:04:45.529Z,35
2017-06-16T12:05:53.618Z,36
2017-06-16T12:07:01.708Z,35
2017-06-16T12:08:09.818Z,36
2017-06-16T12:09:17.881Z,34
2017-06-16T12:10:25.966Z,34
2017-06-16T12:11:34.057Z,34
2017-06-16T12:12:42.144Z,34
2017-06-16T12:13:50.233Z,33
2017-06-16T12:14:58.319Z,32
2017-06-16T12:16:06.433Z,33
2017-06-16T12:17:14.494Z,32
2017-06-16T12:18:22.583Z,32
2017-06-16T12:19:30.674Z,32
2017-06-16T12:20:38.788Z,32
2017-06-16T12:21:46.847Z,30
2017-06-16T12:22:54.935Z,30
2017-06-16T12:24:03.023Z,30
2017-06-16T12:25:11.148Z,30
2017-06-16T12:26:19.201Z,31
2017-06-16T12:27:27.289Z,32
2017-06-16T12:28:35.375Z,32
2017-06-16T12:29:43.466Z,32
2017-06-16T12:30:51.890Z,33
2017-06-16T12:31:59.639Z,33
2017-06-16T12:33:07.729Z,33
2017-06-16T12:34:15.817Z,34
2017-06-16T12:35:23.906Z,33
2017-06-16T12:36:31.992Z,33
2017-06-16T12:37:40.081Z,33
2017-06-16T12:38:48.167Z,34
2017-06-16T12:39:56.443Z,33
2017-06-16T12:41:04.648Z,33
2017-06-16T12:42:12.517Z,34
2017-06-16T12:43:20.519Z,35
2017-06-16T12:44:28.609Z,35
2017-06-16T12:45:36.696Z,35
2017-06-16T12:46:44.783Z,35
2017-06-16T12:47:52.870Z,34
2017-06-16T12:49:00.998Z,33
2017-06-16T12:50:09.045Z,32
2017-06-16T12:51:17.133Z,31
2017-06-16T12:52:25.220Z,31
2017-06-16T12:53:33.331Z,30
2017-06-16T12:54:41.404Z,30
2017-06-16T12:55:49.486Z,31
2017-06-16T12:56:57.577Z,31
2017-06-16T12:58:05.659Z,32
2017-06-16T12:59:13.747Z,32
2017-06-16T13:00:21.834Z,33
2017-06-16T13:01:29.927Z,31
2017-06-16T13:02:38.012Z,31
2017-06-16T13:03:46.150Z,31
2017-06-16T13:04:54.187Z,31
2017-06-16T13:06:02.275Z,31
2017-06-16T13:07:10.362Z,31
2017-06-16T13:08:18.449Z,31
2017-06-16T13:09:26.537Z,32
2017-06-16T13:10:34.651Z,32
2017-06-16T13:11:42.715Z,33
2017-06-16T13:12:50.802Z,32
2017-06-16T13:13:58.890Z,33
2017-06-16T13:15:06.978Z,32
2017-06-16T13:16:15.065Z,32
2017-06-16T13:17:23.154Z,32
2017-06-16T13:18:31.243Z,32
2017-06-16T13:19:39.331Z,33
2017-06-16T13:20:47.417Z,33
2017-06-16T13:21:55.505Z,33
2017-06-16T13:23:03.593Z,34
2017-06-16T13:24:11.680Z,33
2017-06-16T13:25:19.769Z,34
2017-06-16T13:26:27.862Z,34
2017-06-16T13:27:35.941Z,33
2017-06-16T13:28:44.029Z,34
2017-06-16T13:29:52.119Z,34
2017-06-16T13:31:00.207Z,34
2017-06-16T13:32:08.299Z,35
2017-06-16T13:33:16.384Z,34
2017-06-16T13:34:24.472Z,34
2017-06-16T13:35:32.558Z,34
2017-06-16T13:36:40.646Z,33
2017-06-16T13:37:48.732Z,35
2017-06-16T13:38:56.822Z,35
2017-06-16T13:40:04.911Z,36
2017-06-16T13:41:12.997Z,36
2017-06-16T13:42:21.088Z,36
2017-06-16T13:43:29.172Z,36
2017-06-16T13:44:37.263Z,37
2017-06-16T13:45:45.361Z,36
2017-06-16T13:46:53.453Z,36
2017-06-16T13:48:01.537Z,36
2017-06-16T13:49:09.625Z,36
2017-06-16T13:50:17.714Z,36
2017-06-16T13:51:25.803Z,36
2017-06-16T13:52:33.891Z,35
2017-06-16T13:53:41.976Z,35
2017-06-16T13:54:50.141Z,36
2017-06-16T13:55:58.151Z,36
2017-06-16T13:57:06.247Z,36
2017-06-16T13:58:14.327Z,36
2017-06-16T13:59:22.417Z,36
2017-06-16T14:00:30.505Z,36
2017-06-16T14:01:38.595Z,36
2017-06-16T14:02:46.680Z,36
2017-06-16T14:03:54.767Z,36
2017-06-16T14:05:02.917Z,35
2017-06-16T14:06:10.948Z,36
2017-06-16T14:07:19.031Z,37
2017-06-16T14:08:27.120Z,36
2017-06-16T14:09:35.215Z,36
2017-06-16T14:10:43.307Z,37
2017-06-16T14:11:51.400Z,36
2017-06-16T14:12:59.479Z,37
2017-06-16T14:14:07.574Z,37
2017-06-16T14:15:15.655Z,37
2017-06-16T14:16:23.826Z,38
2017-06-16T14:17:31.834Z,38
2017-06-16T14:18:39.922Z,38
2017-06-16T14:19:48.008Z,38
2017-06-16T14:20:56.099Z,38
2017-06-16T14:22:04.185Z,38
2017-06-16T14:23:12.272Z,38
2017-06-16T14:24:20.359Z,37
2017-06-16T14:25:28.447Z,37
2017-06-16T14:26:36.536Z,38
2017-06-16T14:27:44.624Z,37
2017-06-16T14:28:52.711Z,37
2017-06-16T14:30:00.983Z,37
2017-06-16T14:31:08.890Z,37
2017-06-16T14:32:16.973Z,38
2017-06-16T14:33:25.063Z,38
2017-06-16T14:34:33.151Z,38
2017-06-16T14:35:41.239Z,38
2017-06-16T14:36:49.327Z,38
2017-06-16T14:37:57.415Z,38
2017-06-16T14:39:05.511Z,38
2017-06-16T14:40:13.591Z,37
2017-06-16T14:41:21.679Z,38
2017-06-16T14:42:29.765Z,38
2017-06-16T14:43:37.856Z,37
2017-06-16T14:44:45.941Z,38
2017-06-16T14:45:54.031Z,38
2017-06-16T14:47:02.118Z,37
2017-06-16T14:48:10.208Z,38
2017-06-16T14:49:18.293Z,37
2017-06-16T14:50:26.385Z,37
2017-06-16T14:51:34.473Z,37
2017-06-16T14:52:42.560Z,37
2017-06-16T14:53:50.647Z,37
2017-06-16T14:54:58.736Z,37
2017-06-16T14:56:06.822Z,37
2017-06-16T14:57:14.911Z,37
2017-06-16T14:58:23.000Z,36
2017-06-16T14:59:31.085Z,37
2017-06-16T15:00:39.174Z,37
2017-06-16T15:01:47.261Z,37
2017-06-16T15:02:55.346Z,37
2017-06-16T15:04:03.435Z,37
2017-06-16T15:05:11.524Z,36
2017-06-16T15:06:19.613Z,37
2017-06-16T15:07:27.716Z,37
2017-06-16T15:08:35.804Z,36
2017-06-16T15:09:43.892Z,38
2017-06-16T15:10:51.980Z,37
2017-06-16T15:12:00.067Z,36
2017-06-16T15:13:08.157Z,36
2017-06-16T15:14:16.244Z,36
2017-06-16T15:15:24.332Z,36
2017-06-16T15:16:32.423Z,36
2017-06-16T15:17:40.507Z,37
2017-06-16T15:18:48.596Z,37
2017-06-16T15:19:56.683Z,37
2017-06-16T15:21:04.770Z,36
2017-06-16T15:22:12.862Z,36
2017-06-16T15:23:20.948Z,36
2017-06-16T15:24:29.036Z,37
2017-06-16T15:25:37.125Z,36
2017-06-16T15:26:45.215Z,37
2017-06-16T15:27:53.299Z,37
2017-06-16T15:29:01.384Z,38
2017-06-16T15:30:09.474Z,37
2017-06-16T15:31:17.562Z,36
2017-06-16T15:32:25.653Z,37
2017-06-16T15:33:33.737Z,36
2017-06-16T15:34:41.825Z,36
2017-06-16T15:35:49.915Z,36
2017-06-16T15:36:57.999Z,36
2017-06-16T15:38:06.093Z,36
2017-06-16T15:39:14.185Z,35
2017-06-16T15:40:22.273Z,36
2017-06-16T15:41:30.363Z,34
2017-06-16T15:42:38.449Z,34
2017-06-16T15:43:46.538Z,35
2017-06-16T15:44:54.622Z,35
2017-06-16T15:46:02.711Z,34
2017-06-16T15:47:10.798Z,33
2017-06-16T15:48:18.888Z,34
2017-06-16T15:49:26.976Z,35
2017-06-16T15:50:35.062Z,34
2017-06-16T15:51:43.151Z,34
2017-06-16T15:52:51.242Z,34
2017-06-16T15:53:59.325Z,34
2017-06-16T15:55:07.413Z,34
2017-06-16T15:56:15.510Z,34
2017-06-16T15:57:23.583Z,34
2017-06-16T15:58:31.672Z,34
2017-06-16T15:59:39.761Z,34
2017-06-16T16:00:47.849Z,33
2017-06-16T16:01:55.936Z,34
2017-06-16T16:03:04.025Z,34
2017-06-16T16:04:12.113Z,34
2017-06-16T16:05:20.200Z,34
2017-06-16T16:06:28.288Z,34
2017-06-16T16:07:36.377Z,35
2017-06-16T16:08:44.462Z,35
2017-06-16T16:09:52.549Z,35
2017-06-16T16:11:00.637Z,35
2017-06-16T16:12:08.725Z,35
2017-06-16T16:13:16.816Z,35
2017-06-16T16:14:24.901Z,36
2017-06-16T16:15:32.988Z,36
2017-06-16T16:16:41.076Z,37
2017-06-16T16:17:49.165Z,36
2017-06-16T16:18:57.252Z,36
2017-06-16T16:20:05.339Z,36
2017-06-16T16:21:13.427Z,36
2017-06-16T16:22:21.515Z,37
2017-06-16T16:23:29.604Z,36
2017-06-16T16:24:37.692Z,37
2017-06-16T16:25:45.780Z,36
2017-06-16T16:26:53.865Z,37
2017-06-16T16:28:01.954Z,37
2017-06-16T16:29:10.039Z,37
2017-06-16T16:30:18.129Z,37
2017-06-16T16:31:26.216Z,37
2017-06-16T16:32:34.336Z,37
2017-06-16T16:33:42.390Z,37
2017-06-16T16:34:50.486Z,37
2017-06-16T16:35:58.564Z,37
2017-06-16T16:37:06.653Z,37
2017-06-16T16:38:14.740Z,37
2017-06-16T16:39:22.829Z,38
2017-06-16T16:40:30.920Z,37
2017-06-16T16:41:39.004Z,37
2017-06-16T16:42:47.093Z,37
2017-06-16T16:43:55.180Z,38
2017-06-16T16:45:03.361Z,38
2017-06-16T16:46:11.353Z,38
2017-06-16T16:47:19.441Z,38
2017-06-16T16:48:27.527Z,38
2017-06-16T16:49:35.622Z,38
2017-06-16T16:50:43.713Z,38
2017-06-16T16:51:51.793Z,38
2017-06-16T16:52:59.888Z,38
2017-06-16T16:54:07.975Z,38
2017-06-16T16:55:16.063Z,38
2017-06-16T16:56:24.150Z,39
2017-06-16T16:57:32.238Z,39
2017-06-16T16:58:40.326Z,39
2017-06-16T16:59:48.423Z,39
2017-06-16T17:00:56.508Z,39
2017-06-16T17:02:04.661Z,39
2017-06-16T17:03:12.682Z,39
2017-06-16T17:04:20.770Z,39
2017-06-16T17:05:28.860Z,39
2017-06-16T17:06:36.946Z,39
2017-06-16T17:07:45.033Z,40
2017-06-16T17:08:53.122Z,40
2017-06-16T17:10:01.209Z,39
2017-06-16T17:11:09.297Z,39
2017-06-16T17:12:17.394Z,40
2017-06-16T17:13:25.478Z,40
2017-06-16T17:14:33.556Z,40
2017-06-16T17:15:41.644Z,40
2017-06-16T17:16:49.731Z,40
2017-06-16T17:17:57.825Z,40
2017-06-16T17:19:05.991Z,40
2017-06-16T17:20:14.000Z,40
2017-06-16T17:21:22.083Z,41
2017-06-16T17:22:30.172Z,40
2017-06-16T17:23:38.263Z,41
2017-06-16T17:24:46.349Z,40
2017-06-16T17:25:54.436Z,41
2017-06-16T17:27:02.524Z,40
2017-06-16T17:28:10.612Z,40
2017-06-16T17:29:18.701Z,41
2017-06-16T17:30:26.787Z,41
2017-06-16T17:31:34.873Z,41
2017-06-16T17:32:42.959Z,40
2017-06-16T17:33:51.047Z,41
2017-06-16T17:34:59.135Z,41
2017-06-16T17:36:07.293Z,41
2017-06-16T17:37:15.311Z,41
2017-06-16T17:38:23.398Z,41
2017-06-16T17:39:31.483Z,41
2017-06-16T17:40:39.621Z,41
2017-06-16T17:41:47.657Z,41
2017-06-16T17:42:55.745Z,41
2017-06-16T17:44:03.828Z,41
2017-06-16T17:45:11.924Z,41
2017-06-16T17:46:20.007Z,41
2017-06-16T17:47:28.094Z,41
2017-06-16T17:48:36.181Z,41
2017-06-16T17:49:44.268Z,41
2017-06-16T17:50:52.360Z,41
2017-06-16T17:52:00.443Z,41
2017-06-16T17:53:08.531Z,41
2017-06-16T17:54:16.620Z,41
2017-06-16T17:55:24.708Z,41
2017-06-16T17:56:32.792Z,41
2017-06-16T17:57:40.931Z,41
2017-06-16T17:58:48.973Z,41
2017-06-16T17:59:57.054Z,41
2017-06-16T18:01:05.142Z,41
2017-06-16T18:02:13.228Z,41
2017-06-16T18:03:21.317Z,41
2017-06-16T18:04:29.406Z,41
2017-06-16T18:05:37.494Z,41
2017-06-16T18:06:45.578Z,41
2017-06-16T18:07:53.669Z,41
2017-06-16T18:09:01.747Z,41
2017-06-16T18:10:09.847Z,41
2017-06-16T18:11:17.936Z,41
2017-06-16T18:12:26.019Z,41
2017-06-16T18:13:34.114Z,41
2017-06-16T18:14:42.255Z,41
2017-06-16T18:15:50.292Z,41
2017-06-16T18:16:58.384Z,42
2017-06-16T18:18:06.473Z,42
2017-06-16T18:19:14.561Z,41
2017-06-16T18:20:22.650Z,41
2017-06-16T18:21:30.736Z,42
2017-06-16T18:22:38.824Z,42
2017-06-16T18:23:46.911Z,42
2017-06-16T18:24:54.996Z,42
2017-06-16T18:26:03.083Z,42
2017-06-16T18:27:11.171Z,42
2017-06-16T18:28:19.259Z,42
2017-06-16T18:29:27.347Z,42
2017-06-16T18:30:35.434Z,42
2017-06-16T18:31:43.576Z,42
2017-06-16T18:32:51.612Z,42
2017-06-16T18:33:59.695Z,42
2017-06-16T18:35:07.783Z,42
2017-06-16T18:36:15.867Z,42
2017-06-16T18:37:23.958Z,42
2017-06-16T18:38:32.053Z,42
2017-06-16T18:39:40.141Z,43
2017-06-16T18:40:48.228Z,43
2017-06-16T18:41:56.314Z,43
2017-06-16T18:43:04.411Z,43
2017-06-16T18:44:12.490Z,42
2017-06-16T18:45:20.574Z,43
2017-06-16T18:46:28.661Z,43
2017-06-16T18:47:36.750Z,43
2017-06-16T18:48:44.837Z,43
2017-06-16T18:49:52.926Z,43
2017-06-16T18:51:01.020Z,43
2017-06-16T18:52:09.108Z,43
2017-06-16T18:53:17.202Z,43
2017-06-16T18:54:25.290Z,43
2017-06-16T18:55:33.388Z,43
2017-06-16T18:56:41.474Z,43
2017-06-16T18:57:49.559Z,43
2017-06-16T18:58:57.646Z,43
2017-06-16T19:00:05.732Z,43
2017-06-16T19:01:13.834Z,43
2017-06-16T19:02:21.907Z,43
2017-06-16T19:03:29.995Z,43
2017-06-16T19:04:38.084Z,43
2017-06-16T19:05:46.167Z,43
2017-06-16T19:06:54.255Z,43
2017-06-16T19:08:02.340Z,43
2017-06-16T19:09:10.427Z,44
2017-06-16T19:10:18.518Z,44
2017-06-16T19:11:26.601Z,43
2017-06-16T19:12:34.689Z,43
2017-06-16T19:13:42.778Z,43
2017-06-16T19:14:50.892Z,43
2017-06-16T19:15:58.950Z,43
2017-06-16T19:17:07.039Z,43
2017-06-16T19:18:15.127Z,43
2017-06-16T19:19:23.490Z,43
2017-06-16T19:20:31.299Z,43
2017-06-16T19:21:39.387Z,43
2017-06-16T19:22:47.551Z,43
2017-06-16T19:23:55.565Z,43
2017-06-16T19:25:03.651Z,43
2017-06-16T19:26:11.743Z,43
2017-06-16T19:27:19.825Z,43
2017-06-16T19:28:27.913Z,43
2017-06-16T19:29:35.997Z,43
2017-06-16T19:30:44.084Z,43
2017-06-16T19:31:52.170Z,43
2017-06-16T19:33:00.258Z,43
2017-06-16T19:34:08.351Z,43
2017-06-16T19:35:16.431Z,43
2017-06-16T19:36:24.518Z,43
2017-06-16T19:37:32.608Z,43
2017-06-16T19:38:40.697Z,43
2017-06-16T19:39:48.782Z,43
2017-06-16T19:40:56.872Z,43
2017-06-16T19:42:04.957Z,43
2017-06-16T19:43:13.044Z,42
2017-06-16T19:44:21.131Z,43
2017-06-16T19:45:29.217Z,42
2017-06-16T19:46:37.305Z,43
2017-06-16T19:47:45.390Z,43
2017-06-16T19:48:53.481Z,42
2017-06-16T19:50:01.566Z,43
2017-06-16T19:51:09.659Z,42
2017-06-16T19:52:17.737Z,42
2017-06-16T19:53:25.826Z,42
2017-06-16T19:54:33.909Z,42
2017-06-16T19:55:41.997Z,42
2017-06-16T19:56:50.083Z,42
2017-06-16T19:57:58.168Z,42
2017-06-16T19:59:06.255Z,42
2017-06-16T20:00:14.347Z,42
2017-06-16T20:01:22.435Z,42
2017-06-16T20:02:30.525Z,42
2017-06-16T20:03:38.605Z,42
2017-06-16T20:04:46.689Z,43
2017-06-16T20:05:54.799Z,42
2017-06-16T20:07:02.862Z,43
2017-06-16T20:08:10.950Z,42
2017-06-16T20:09:19.036Z,43
2017-06-16T20:10:27.120Z,43
2017-06-16T20:11:35.208Z,43
2017-06-16T20:12:43.294Z,43
2017-06-16T20:13:51.382Z,43
2017-06-16T20:14:59.465Z,43
2017-06-16T20:16:07.556Z,43
2017-06-16T20:17:15.645Z,43
2017-06-16T20:18:23.732Z,44
2017-06-16T20:19:31.821Z,43
2017-06-16T20:20:39.910Z,44
2017-06-16T20:21:47.990Z,43
2017-06-16T20:22:56.076Z,43
2017-06-16T20:24:04.160Z,43
2017-06-16T20:25:12.247Z,43
2017-06-16T20:26:20.335Z,43
2017-06-16T20:27:28.420Z,43
2017-06-16T20:28:36.508Z,43
2017-06-16T20:29:44.593Z,43
2017-06-16T20:30:52.682Z,43
2017-06-16T20:32:00.765Z,43
2017-06-16T20:33:08.851Z,44
2017-06-16T20:34:16.936Z,43
2017-06-16T20:35:25.022Z,43
2017-06-16T20:36:33.108Z,43
2017-06-16T20:37:41.194Z,44
2017-06-16T20:38:49.280Z,44
2017-06-16T20:39:57.365Z,44
2017-06-16T20:41:05.458Z,44
2017-06-16T20:42:13.547Z,44
2017-06-16T20:43:21.629Z,44
2017-06-16T20:44:29.717Z,44
2017-06-16T20:45:37.806Z,44
2017-06-16T20:46:45.889Z,45
2017-06-16T20:47:53.976Z,45
2017-06-16T20:49:02.082Z,45
2017-06-16T20:50:10.145Z,45
2017-06-16T20:51:18.231Z,45
2017-06-16T20:52:26.316Z,45
2017-06-16T20:53:34.404Z,44
2017-06-16T20:54:42.490Z,45
2017-06-16T20:55:50.586Z,45
2017-06-16T20:56:58.663Z,44
2017-06-16T20:58:06.751Z,44
2017-06-16T20:59:14.836Z,45
2017-06-16T21:00:22.923Z,45
2017-06-16T21:01:31.006Z,45
2017-06-16T21:02:39.092Z,45
2017-06-16T21:03:47.177Z,45
2017-06-16T21:04:55.265Z,45
2017-06-16T21:06:03.351Z,45
2017-06-16T21:07:11.437Z,46
2017-06-16T21:08:19.520Z,45
2017-06-16T21:09:27.604Z,46
2017-06-16T21:10:35.691Z,46
2017-06-16T21:11:43.777Z,46
2017-06-16T21:12:51.863Z,46
2017-06-16T21:13:59.950Z,46
2017-06-16T21:15:08.033Z,46
2017-06-16T21:16:16.121Z,46
2017-06-16T21:17:24.205Z,46
2017-06-16T21:18:32.289Z,46
2017-06-16T21:19:40.374Z,45
2017-06-16T21:20:48.463Z,45
2017-06-16T21:21:56.545Z,46
2017-06-16T21:23:04.632Z,46
2017-06-16T21:24:12.717Z,46
2017-06-16T21:25:20.803Z,46
2017-06-16T21:26:28.891Z,46
2017-06-16T21:27:36.974Z,46
2017-06-16T21:28:45.069Z,46
2017-06-16T21:29:53.154Z,46
2017-06-16T21:31:01.239Z,46
2017-06-16T21:32:09.328Z,46
2017-06-16T21:33:17.414Z,46
2017-06-16T21:34:25.498Z,46
2017-06-16T21:35:33.586Z,46
2017-06-16T21:36:41.670Z,46
2017-06-16T21:37:49.751Z,46
2017-06-16T21:38:57.914Z,46
2017-06-16T21:40:05.955Z,46
2017-06-16T21:41:14.018Z,47
2017-06-16T21:42:22.104Z,46
2017-06-16T21:43:30.188Z,46
2017-06-16T21:44:38.272Z,46
2017-06-16T21:45:46.355Z,46
2017-06-16T21:46:54.440Z,46
2017-06-16T21:48:02.528Z,47
2017-06-16T21:49:10.612Z,46
2017-06-16T21:50:18.696Z,46
2017-06-16T21:51:26.782Z,46
2017-06-16T21:52:34.868Z,46
2017-06-16T21:53:42.952Z,46
2017-06-16T21:54:51.039Z,46
